sensor_id;sensor_type;location;lat;lon;timestamp;pressure;altitude;pressure_sealevel;temperature;humidity
4570;BME280;2297;51.442;6.996;2022-11-20T00:01:27;99954.66;;;1.73;48.71
4570;BME280;2297;51.442;6.996;2022-11-20T00:03:55;99946.84;;;1.75;48.75
4570;BME280;2297;51.442;6.996;2022-11-20T00:06:23;99953.75;;;1.74;48.67
4570;BME280;2297;51.442;6.996;2022-11-20T00:08:54;99952.94;;;1.78;48.88
4570;BME280;2297;51.442;6.996;2022-11-20T00:11:23;99951.22;;;1.80;48.59
4570;BME280;2297;51.442;6.996;2022-11-20T00:13:51;99939.06;;;1.79;48.70
4570;BME280;2297;51.442;6.996;2022-11-20T00:16:20;99939.91;;;1.77;48.84
4570;BME280;2297;51.442;6.996;2022-11-20T00:18:49;99939.03;;;1.78;48.90
4570;BME280;2297;51.442;6.996;2022-11-20T00:21:17;99933.84;;;1.79;49.07
4570;BME280;2297;51.442;6.996;2022-11-20T00:23:44;99939.91;;;1.77;49.15
4570;BME280;2297;51.442;6.996;2022-11-20T00:26:14;99942.50;;;1.77;49.10
4570;BME280;2297;51.442;6.996;2022-11-20T00:28:41;99935.59;;;1.77;49.07
4570;BME280;2297;51.442;6.996;2022-11-20T00:31:10;99935.59;;;1.77;49.21
4570;BME280;2297;51.442;6.996;2022-11-20T00:33:37;99932.06;;;1.72;49.31
4570;BME280;2297;51.442;6.996;2022-11-20T00:36:05;99930.31;;;1.73;49.08
4570;BME280;2297;51.442;6.996;2022-11-20T00:38:33;99925.09;;;1.68;49.18
4570;BME280;2297;51.442;6.996;2022-11-20T00:41:01;99934.63;;;1.69;49.64
4570;BME280;2297;51.442;6.996;2022-11-20T00:43:29;99933.78;;;1.72;49.37
4570;BME280;2297;51.442;6.996;2022-11-20T00:45:57;99933.75;;;1.70;49.37
4570;BME280;2297;51.442;6.996;2022-11-20T00:48:24;99937.28;;;1.72;49.55
4570;BME280;2297;51.442;6.996;2022-11-20T00:50:51;99935.53;;;1.74;49.51
4570;BME280;2297;51.442;6.996;2022-11-20T00:53:17;99928.63;;;1.79;49.47
4570;BME280;2297;51.442;6.996;2022-11-20T00:55:52;99937.31;;;1.78;49.40
4570;BME280;2297;51.442;6.996;2022-11-20T00:58:19;99937.28;;;1.75;49.40
4570;BME280;2297;51.442;6.996;2022-11-20T01:00:47;99933.81;;;1.73;49.60
4570;BME280;2297;51.442;6.996;2022-11-20T01:03:14;99935.59;;;1.80;49.72
4570;BME280;2297;51.442;6.996;2022-11-20T01:05:41;99945.19;;;1.83;49.36
4570;BME280;2297;51.442;6.996;2022-11-20T01:08:07;99943.47;;;1.85;49.41
4570;BME280;2297;51.442;6.996;2022-11-20T01:10:34;99940.81;;;1.80;49.60
4570;BME280;2297;51.442;6.996;2022-11-20T01:13:01;99940.88;;;1.87;49.68
4570;BME280;2297;51.442;6.996;2022-11-20T01:15:45;99928.72;;;1.89;49.52
4570;BME280;2297;51.442;6.996;2022-11-20T01:18:34;99925.25;;;1.88;49.50
4570;BME280;2297;51.442;6.996;2022-11-20T01:21:02;99923.47;;;1.83;49.15
4570;BME280;2297;51.442;6.996;2022-11-20T01:23:33;99920.00;;;1.84;49.51
4570;BME280;2297;51.442;6.996;2022-11-20T01:26:02;99919.13;;;1.83;49.60
4570;BME280;2297;51.442;6.996;2022-11-20T01:28:29;99908.66;;;1.78;49.82
4570;BME280;2297;51.442;6.996;2022-11-20T01:30:56;99907.78;;;1.78;50.10
4570;BME280;2297;51.442;6.996;2022-11-20T01:33:23;99902.59;;;1.79;50.14
4570;BME280;2297;51.442;6.996;2022-11-20T01:35:52;99901.75;;;1.79;50.23
4570;BME280;2297;51.442;6.996;2022-11-20T01:38:19;99906.09;;;1.80;50.27
4570;BME280;2297;51.442;6.996;2022-11-20T01:40:53;99903.53;;;1.88;50.43
4570;BME280;2297;51.442;6.996;2022-11-20T01:43:20;99902.66;;;1.83;50.76
4570;BME280;2297;51.442;6.996;2022-11-20T01:46:13;99908.78;;;1.91;50.52
4570;BME280;2297;51.442;6.996;2022-11-20T01:48:46;99908.81;;;1.95;50.45
4570;BME280;2297;51.442;6.996;2022-11-20T01:51:19;99911.41;;;1.97;50.48
4570;BME280;2297;51.442;6.996;2022-11-20T01:53:47;99911.41;;;1.92;50.58
4570;BME280;2297;51.442;6.996;2022-11-20T01:56:14;99918.34;;;1.93;50.61
4570;BME280;2297;51.442;6.996;2022-11-20T01:58:45;99912.31;;;2.02;50.70
4570;BME280;2297;51.442;6.996;2022-11-20T02:01:23;99913.19;;;2.00;50.42
4570;BME280;2297;51.442;6.996;2022-11-20T02:03:50;99901.91;;;2.01;50.48
4570;BME280;2297;51.442;6.996;2022-11-20T02:06:22;99905.41;;;2.04;50.38
4570;BME280;2297;51.442;6.996;2022-11-20T02:08:51;99893.28;;;2.09;50.57
4570;BME280;2297;51.442;6.996;2022-11-20T02:11:17;99897.66;;;2.13;50.56
4570;BME280;2297;51.442;6.996;2022-11-20T02:13:44;99893.34;;;2.17;50.52
4570;BME280;2297;51.442;6.996;2022-11-20T02:16:16;99889.91;;;2.20;50.74
4570;BME280;2297;51.442;6.996;2022-11-20T02:18:44;99898.56;;;2.20;50.86
4570;BME280;2297;51.442;6.996;2022-11-20T02:21:24;99888.16;;;2.25;51.27
4570;BME280;2297;51.442;6.996;2022-11-20T02:24:06;99878.66;;;2.28;51.30
4570;BME280;2297;51.442;6.996;2022-11-20T02:26:38;99876.03;;;2.27;51.26
4570;BME280;2297;51.442;6.996;2022-11-20T02:29:06;99891.66;;;2.27;51.19
4570;BME280;2297;51.442;6.996;2022-11-20T02:31:41;99890.81;;;2.26;51.03
4570;BME280;2297;51.442;6.996;2022-11-20T02:34:09;99884.72;;;2.27;50.60
4570;BME280;2297;51.442;6.996;2022-11-20T02:36:36;99876.88;;;2.26;50.59
4570;BME280;2297;51.442;6.996;2022-11-20T02:39:06;99881.25;;;2.25;50.44
4570;BME280;2297;51.442;6.996;2022-11-20T02:41:48;99872.53;;;2.23;50.46
4570;BME280;2297;51.442;6.996;2022-11-20T02:44:15;99869.91;;;2.22;50.32
4570;BME280;2297;51.442;6.996;2022-11-20T02:46:42;99863.84;;;2.24;50.52
4570;BME280;2297;51.442;6.996;2022-11-20T02:49:08;99875.13;;;2.23;50.63
4570;BME280;2297;51.442;6.996;2022-11-20T02:52:03;99880.41;;;2.33;50.83
4570;BME280;2297;51.442;6.996;2022-11-20T02:54:31;99869.97;;;2.31;50.86
4570;BME280;2297;51.442;6.996;2022-11-20T02:56:57;99862.19;;;2.37;50.96
4570;BME280;2297;51.442;6.996;2022-11-20T02:59:42;99866.56;;;2.44;51.02
4570;BME280;2297;51.442;6.996;2022-11-20T03:02:09;99870.94;;;2.48;51.21
4570;BME280;2297;51.442;6.996;2022-11-20T03:04:35;99869.22;;;2.51;51.49
4570;BME280;2297;51.442;6.996;2022-11-20T03:07:02;99869.22;;;2.52;51.16
4570;BME280;2297;51.442;6.996;2022-11-20T03:09:29;99877.94;;;2.56;51.43
4570;BME280;2297;51.442;6.996;2022-11-20T03:11:57;99867.53;;;2.59;51.52
4570;BME280;2297;51.442;6.996;2022-11-20T03:14:23;99861.50;;;2.66;51.78
4570;BME280;2297;51.442;6.996;2022-11-20T03:16:50;99865.81;;;2.65;51.39
4570;BME280;2297;51.442;6.996;2022-11-20T03:19:17;99852.81;;;2.70;51.47
4570;BME280;2297;51.442;6.996;2022-11-20T03:21:43;99859.78;;;2.74;51.47
4570;BME280;2297;51.442;6.996;2022-11-20T03:24:10;99861.53;;;2.75;51.40
4570;BME280;2297;51.442;6.996;2022-11-20T03:26:36;99856.31;;;2.75;51.09
4570;BME280;2297;51.442;6.996;2022-11-20T03:29:06;99857.16;;;2.76;50.89
4570;BME280;2297;51.442;6.996;2022-11-20T03:31:34;99859.78;;;2.74;50.77
4570;BME280;2297;51.442;6.996;2022-11-20T03:34:02;99861.53;;;2.75;50.86
4570;BME280;2297;51.442;6.996;2022-11-20T03:36:30;99857.16;;;2.76;50.70
4570;BME280;2297;51.442;6.996;2022-11-20T03:38:57;99864.09;;;2.74;50.65
4570;BME280;2297;51.442;6.996;2022-11-20T03:41:25;99853.63;;;2.61;50.25
4570;BME280;2297;51.442;6.996;2022-11-20T03:43:54;99849.28;;;2.62;50.01
4570;BME280;2297;51.442;6.996;2022-11-20T03:46:23;99852.78;;;2.64;50.07
4570;BME280;2297;51.442;6.996;2022-11-20T03:48:50;99847.56;;;2.65;50.17
4570;BME280;2297;51.442;6.996;2022-11-20T03:51:18;99840.63;;;2.66;49.96
4570;BME280;2297;51.442;6.996;2022-11-20T03:53:46;99837.13;;;2.67;49.75
4570;BME280;2297;51.442;6.996;2022-11-20T03:56:14;99844.94;;;2.69;49.37
4570;BME280;2297;51.442;6.996;2022-11-20T03:58:42;99841.47;;;2.67;49.22
4570;BME280;2297;51.442;6.996;2022-11-20T04:01:11;99837.13;;;2.64;49.10
4570;BME280;2297;51.442;6.996;2022-11-20T04:03:40;99844.94;;;2.67;49.01
4570;BME280;2297;51.442;6.996;2022-11-20T04:06:09;99841.47;;;2.63;49.28
4570;BME280;2297;51.442;6.996;2022-11-20T04:08:37;99842.31;;;2.59;49.14
4570;BME280;2297;51.442;6.996;2022-11-20T04:11:11;99843.19;;;2.60;49.25
4570;BME280;2297;51.442;6.996;2022-11-20T04:13:38;99847.50;;;2.55;49.12
4570;BME280;2297;51.442;6.996;2022-11-20T04:16:06;99833.63;;;2.56;49.41
4570;BME280;2297;51.442;6.996;2022-11-20T04:18:33;99841.44;;;2.62;49.48
4570;BME280;2297;51.442;6.996;2022-11-20T04:21:01;99839.72;;;2.64;49.51
4570;BME280;2297;51.442;6.996;2022-11-20T04:23:28;99844.06;;;2.62;49.49
4570;BME280;2297;51.442;6.996;2022-11-20T04:26:00;99845.81;;;2.63;49.38
4570;BME280;2297;51.442;6.996;2022-11-20T04:28:27;99844.09;;;2.67;49.37
4570;BME280;2297;51.442;6.996;2022-11-20T04:30:54;99833.66;;;2.71;49.39
4570;BME280;2297;51.442;6.996;2022-11-20T04:33:20;99837.16;;;2.72;49.54
4570;BME280;2297;51.442;6.996;2022-11-20T04:35:47;99842.38;;;2.76;49.83
4570;BME280;2297;51.442;6.996;2022-11-20T04:38:15;99846.72;;;2.79;49.88
4570;BME280;2297;51.442;6.996;2022-11-20T04:40:42;99844.16;;;2.84;50.01
4570;BME280;2297;51.442;6.996;2022-11-20T04:43:09;99842.44;;;2.89;50.04
4570;BME280;2297;51.442;6.996;2022-11-20T04:45:36;99833.75;;;2.96;50.17
4570;BME280;2297;51.442;6.996;2022-11-20T04:48:02;99840.72;;;2.95;50.37
4570;BME280;2297;51.442;6.996;2022-11-20T04:50:29;99840.72;;;2.94;50.22
4570;BME280;2297;51.442;6.996;2022-11-20T04:52:56;99845.06;;;3.00;50.35
4570;BME280;2297;51.442;6.996;2022-11-20T04:55:24;99837.25;;;3.03;50.42
4570;BME280;2297;51.442;6.996;2022-11-20T04:57:50;99832.91;;;3.06;50.48
4570;BME280;2297;51.442;6.996;2022-11-20T05:03:36;99838.16;;;3.19;50.67
4570;BME280;2297;51.442;6.996;2022-11-20T05:06:04;99834.69;;;3.23;50.19
4570;BME280;2297;51.442;6.996;2022-11-20T05:08:32;99834.72;;;3.26;50.20
4570;BME280;2297;51.442;6.996;2022-11-20T05:11:04;99846.00;;;3.29;49.88
4570;BME280;2297;51.442;6.996;2022-11-20T05:13:31;99842.53;;;3.26;49.89
4570;BME280;2297;51.442;6.996;2022-11-20T05:16:01;99842.53;;;3.29;50.01
4570;BME280;2297;51.442;6.996;2022-11-20T05:18:28;99842.53;;;3.29;50.20
4570;BME280;2297;51.442;6.996;2022-11-20T05:20:55;99843.41;;;3.32;50.41
4570;BME280;2297;51.442;6.996;2022-11-20T05:23:22;99835.56;;;3.31;50.30
4570;BME280;2297;51.442;6.996;2022-11-20T05:25:52;99843.41;;;3.34;49.98
4570;BME280;2297;51.442;6.996;2022-11-20T05:28:20;99839.91;;;3.27;49.57
4570;BME280;2297;51.442;6.996;2022-11-20T05:30:47;99839.03;;;3.27;49.58
4570;BME280;2297;51.442;6.996;2022-11-20T05:33:14;99840.75;;;3.19;49.39
4570;BME280;2297;51.442;6.996;2022-11-20T05:35:41;99844.28;;;3.30;49.10
4570;BME280;2297;51.442;6.996;2022-11-20T05:38:07;99836.44;;;3.35;48.87
4570;BME280;2297;51.442;6.996;2022-11-20T05:40:34;99839.06;;;3.39;48.74
4570;BME280;2297;51.442;6.996;2022-11-20T05:43:01;99844.28;;;3.45;48.79
4570;BME280;2297;51.442;6.996;2022-11-20T05:45:29;99838.19;;;3.46;48.88
4570;BME280;2297;51.442;6.996;2022-11-20T05:47:57;99838.22;;;3.51;48.79
4570;BME280;2297;51.442;6.996;2022-11-20T05:50:24;99840.81;;;3.46;48.62
4570;BME280;2297;51.442;6.996;2022-11-20T05:52:51;99849.53;;;3.48;48.74
4570;BME280;2297;51.442;6.996;2022-11-20T05:55:17;99844.31;;;3.48;48.62
4570;BME280;2297;51.442;6.996;2022-11-20T05:57:44;99832.97;;;3.48;48.83
4570;BME280;2297;51.442;6.996;2022-11-20T06:00:11;99839.06;;;3.45;49.18
4570;BME280;2297;51.442;6.996;2022-11-20T06:02:39;99833.84;;;3.48;49.29
4570;BME280;2297;51.442;6.996;2022-11-20T06:05:07;99833.84;;;3.50;49.50
4570;BME280;2297;51.442;6.996;2022-11-20T06:07:33;99828.63;;;3.48;49.57
4570;BME280;2297;51.442;6.996;2022-11-20T06:10:00;99826.88;;;3.47;49.74
4570;BME280;2297;51.442;6.996;2022-11-20T06:12:27;99822.53;;;3.46;49.73
4570;BME280;2297;51.442;6.996;2022-11-20T06:14:53;99826.91;;;3.54;50.10
4570;BME280;2297;51.442;6.996;2022-11-20T06:17:20;99830.38;;;3.53;49.95
4570;BME280;2297;51.442;6.996;2022-11-20T06:19:48;99826.00;;;3.53;49.56
4570;BME280;2297;51.442;6.996;2022-11-20T06:22:14;99819.06;;;3.57;49.70
4570;BME280;2297;51.442;6.996;2022-11-20T06:24:41;99833.84;;;3.61;49.84
4570;BME280;2297;51.442;6.996;2022-11-20T06:27:07;99833.00;;;3.60;49.60
4570;BME280;2297;51.442;6.996;2022-11-20T06:29:34;99831.22;;;3.64;49.40
4570;BME280;2297;51.442;6.996;2022-11-20T06:32:01;99836.47;;;3.65;49.29
4570;BME280;2297;51.442;6.996;2022-11-20T06:34:27;99838.22;;;3.63;49.05
4570;BME280;2297;51.442;6.996;2022-11-20T06:36:55;99839.94;;;3.68;49.12
4570;BME280;2297;51.442;6.996;2022-11-20T06:39:22;99840.81;;;3.62;48.93
4570;BME280;2297;51.442;6.996;2022-11-20T06:41:48;99838.19;;;3.67;48.96
4570;BME280;2297;51.442;6.996;2022-11-20T06:44:15;99839.06;;;3.64;48.62
4570;BME280;2297;51.442;6.996;2022-11-20T06:46:41;99839.94;;;3.66;48.98
4570;BME280;2297;51.442;6.996;2022-11-20T06:49:08;99841.69;;;3.65;48.75
4570;BME280;2297;51.442;6.996;2022-11-20T06:51:35;99839.09;;;3.67;48.69
4570;BME280;2297;51.442;6.996;2022-11-20T06:54:03;99846.03;;;3.68;48.85
4570;BME280;2297;51.442;6.996;2022-11-20T06:56:29;99847.78;;;3.72;48.75
4570;BME280;2297;51.442;6.996;2022-11-20T06:58:56;99838.19;;;3.74;48.61
4570;BME280;2297;51.442;6.996;2022-11-20T07:01:22;99841.69;;;3.69;48.38
4570;BME280;2297;51.442;6.996;2022-11-20T07:03:49;99842.56;;;3.66;48.76
4570;BME280;2297;51.442;6.996;2022-11-20T07:06:16;99845.19;;;3.64;49.17
4570;BME280;2297;51.442;6.996;2022-11-20T07:08:43;99853.88;;;3.56;49.19
4570;BME280;2297;51.442;6.996;2022-11-20T07:11:12;99862.59;;;3.58;49.45
4570;BME280;2297;51.442;6.996;2022-11-20T07:13:38;99865.16;;;3.42;51.16
4570;BME280;2297;51.442;6.996;2022-11-20T07:16:07;99858.22;;;3.37;51.46
4570;BME280;2297;51.442;6.996;2022-11-20T07:18:34;99872.97;;;3.21;52.56
4570;BME280;2297;51.442;6.996;2022-11-20T07:21:01;99865.16;;;3.30;53.11
4570;BME280;2297;51.442;6.996;2022-11-20T07:23:27;99869.53;;;3.42;53.10
4570;BME280;2297;51.442;6.996;2022-11-20T07:25:54;99873.00;;;3.52;53.22
4570;BME280;2297;51.442;6.996;2022-11-20T07:28:22;99869.53;;;3.54;53.14
4570;BME280;2297;51.442;6.996;2022-11-20T07:30:50;99866.94;;;3.62;53.06
4570;BME280;2297;51.442;6.996;2022-11-20T07:33:16;99863.44;;;3.66;52.55
4570;BME280;2297;51.442;6.996;2022-11-20T07:35:43;99866.94;;;3.65;52.90
4570;BME280;2297;51.442;6.996;2022-11-20T07:38:10;99869.53;;;3.65;53.24
4570;BME280;2297;51.442;6.996;2022-11-20T07:40:36;99863.47;;;3.63;52.73
4570;BME280;2297;51.442;6.996;2022-11-20T07:43:03;99861.69;;;3.56;52.94
4570;BME280;2297;51.442;6.996;2022-11-20T07:45:31;99868.69;;;3.63;52.90
4570;BME280;2297;51.442;6.996;2022-11-20T07:47:58;99866.94;;;3.71;53.28
4570;BME280;2297;51.442;6.996;2022-11-20T07:50:24;99860.81;;;3.71;53.44
4570;BME280;2297;51.442;6.996;2022-11-20T07:52:51;99851.25;;;3.74;53.13
4570;BME280;2297;51.442;6.996;2022-11-20T07:55:18;99851.28;;;3.77;53.61
4570;BME280;2297;51.442;6.996;2022-11-20T07:57:45;99853.06;;;3.81;53.62
4570;BME280;2297;51.442;6.996;2022-11-20T08:00:16;99846.94;;;3.78;53.55
4570;BME280;2297;51.442;6.996;2022-11-20T08:02:44;99849.53;;;3.82;53.34
4570;BME280;2297;51.442;6.996;2022-11-20T08:05:11;99837.38;;;3.85;53.56
4570;BME280;2297;51.442;6.996;2022-11-20T08:07:38;99842.59;;;3.81;53.39
4570;BME280;2297;51.442;6.996;2022-11-20T08:10:06;99835.63;;;3.84;53.42
4570;BME280;2297;51.442;6.996;2022-11-20T08:12:33;99833.88;;;3.82;53.49
4570;BME280;2297;51.442;6.996;2022-11-20T08:15:19;99839.97;;;3.88;53.60
4570;BME280;2297;51.442;6.996;2022-11-20T08:17:47;99832.16;;;3.81;53.74
4570;BME280;2297;51.442;6.996;2022-11-20T08:20:14;99832.13;;;3.85;53.65
4570;BME280;2297;51.442;6.996;2022-11-20T08:22:40;99828.66;;;3.87;53.43
4570;BME280;2297;51.442;6.996;2022-11-20T08:25:07;99827.78;;;3.90;53.86
4570;BME280;2297;51.442;6.996;2022-11-20T08:27:34;99838.22;;;4.01;53.50
4570;BME280;2297;51.442;6.996;2022-11-20T08:30:00;99848.66;;;4.04;53.16
4570;BME280;2297;51.442;6.996;2022-11-20T08:32:27;99845.19;;;3.97;53.96
4570;BME280;2297;51.442;6.996;2022-11-20T08:34:55;99839.94;;;4.09;53.59
4570;BME280;2297;51.442;6.996;2022-11-20T08:37:22;99840.81;;;4.04;52.72
4570;BME280;2297;51.442;6.996;2022-11-20T08:39:48;99846.03;;;4.11;52.77
4570;BME280;2297;51.442;6.996;2022-11-20T08:42:15;99846.91;;;4.06;52.45
4570;BME280;2297;51.442;6.996;2022-11-20T08:44:41;99848.63;;;4.19;51.98
4570;BME280;2297;51.442;6.996;2022-11-20T08:47:08;99853.84;;;4.30;51.43
4570;BME280;2297;51.442;6.996;2022-11-20T08:49:35;99849.47;;;4.41;51.85
4570;BME280;2297;51.442;6.996;2022-11-20T08:52:03;99848.53;;;4.52;50.97
4570;BME280;2297;51.442;6.996;2022-11-20T08:54:30;99848.56;;;4.53;50.66
4570;BME280;2297;51.442;6.996;2022-11-20T08:56:57;99850.28;;;4.54;49.92
4570;BME280;2297;51.442;6.996;2022-11-20T08:59:24;99859.06;;;4.35;49.49
4570;BME280;2297;51.442;6.996;2022-11-20T09:01:50;99859.06;;;4.28;49.71
4570;BME280;2297;51.442;6.996;2022-11-20T09:04:17;99858.19;;;4.31;49.48
4570;BME280;2297;51.442;6.996;2022-11-20T09:06:43;99855.56;;;4.39;49.63
4570;BME280;2297;51.442;6.996;2022-11-20T09:09:12;99857.28;;;4.44;49.46
4570;BME280;2297;51.442;6.996;2022-11-20T09:11:38;99851.19;;;4.48;49.36
4570;BME280;2297;51.442;6.996;2022-11-20T09:14:05;99850.28;;;4.57;49.04
4570;BME280;2297;51.442;6.996;2022-11-20T09:16:31;99843.25;;;4.69;48.72
4570;BME280;2297;51.442;6.996;2022-11-20T09:18:58;99843.28;;;4.61;48.57
4570;BME280;2297;51.442;6.996;2022-11-20T09:21:25;99837.16;;;4.68;48.29
4570;BME280;2297;51.442;6.996;2022-11-20T09:23:51;99838.91;;;4.69;48.10
4570;BME280;2297;51.442;6.996;2022-11-20T09:26:19;99831.94;;;4.68;48.21
4570;BME280;2297;51.442;6.996;2022-11-20T09:28:46;99824.94;;;4.70;48.19
4570;BME280;2297;51.442;6.996;2022-11-20T09:31:19;99827.50;;;4.78;48.23
4570;BME280;2297;51.442;6.996;2022-11-20T09:33:47;99824.94;;;4.67;47.75
4570;BME280;2297;51.442;6.996;2022-11-20T09:36:14;99828.41;;;4.72;47.94
4570;BME280;2297;51.442;6.996;2022-11-20T09:38:42;99821.47;;;4.67;48.00
4570;BME280;2297;51.442;6.996;2022-11-20T09:41:25;99819.69;;;4.70;48.07
4570;BME280;2297;51.442;6.996;2022-11-20T09:43:55;99815.31;;;4.80;47.76
4570;BME280;2297;51.442;6.996;2022-11-20T09:46:28;99809.16;;;4.90;47.64
4570;BME280;2297;51.442;6.996;2022-11-20T09:49:04;99809.97;;;4.95;47.47
4570;BME280;2297;51.442;6.996;2022-11-20T09:51:41;99815.16;;;5.08;47.74
4570;BME280;2297;51.442;6.996;2022-11-20T09:54:16;99815.09;;;5.12;47.54
4570;BME280;2297;51.442;6.996;2022-11-20T09:56:47;99817.66;;;5.25;47.50
4570;BME280;2297;51.442;6.996;2022-11-20T09:59:26;99809.75;;;5.29;47.00
4570;BME280;2297;51.442;6.996;2022-11-20T10:01:56;99808.78;;;5.44;46.83
4570;BME280;2297;51.442;6.996;2022-11-20T10:04:24;99813.09;;;5.53;46.68
4570;BME280;2297;51.442;6.996;2022-11-20T10:06:56;99802.75;;;5.33;46.85
4570;BME280;2297;51.442;6.996;2022-11-20T10:09:29;99796.69;;;5.28;46.94
4570;BME280;2297;51.442;6.996;2022-11-20T10:15:22;99795.00;;;5.18;47.59
4570;BME280;2297;51.442;6.996;2022-11-20T10:18:06;99787.97;;;5.26;47.55
4570;BME280;2297;51.442;6.996;2022-11-20T10:20:44;99794.09;;;5.26;47.47
4570;BME280;2297;51.442;6.996;2022-11-20T10:26:17;99787.97;;;5.29;46.62
4570;BME280;2297;51.442;6.996;2022-11-20T10:28:58;99780.13;;;5.23;46.46
4570;BME280;2297;51.442;6.996;2022-11-20T10:31:31;99780.97;;;5.28;46.49
4570;BME280;2297;51.442;6.996;2022-11-20T10:34:02;99770.41;;;5.39;46.36
4570;BME280;2297;51.442;6.996;2022-11-20T10:36:34;99772.03;;;5.52;46.22
4570;BME280;2297;51.442;6.996;2022-11-20T10:39:06;99766.03;;;5.41;45.99
4570;BME280;2297;51.442;6.996;2022-11-20T10:41:41;99754.56;;;5.54;45.82
4570;BME280;2297;51.442;6.996;2022-11-20T10:44:12;99757.13;;;5.59;45.63
4570;BME280;2297;51.442;6.996;2022-11-20T10:47:03;99751.00;;;5.66;45.77
4570;BME280;2297;51.442;6.996;2022-11-20T10:49:30;99745.63;;;5.78;45.54
4570;BME280;2297;51.442;6.996;2022-11-20T10:52:03;99745.78;;;5.66;45.85
4570;BME280;2297;51.442;6.996;2022-11-20T10:55:05;99752.63;;;5.79;45.54
4570;BME280;2297;51.442;6.996;2022-11-20T10:57:46;99747.44;;;5.73;45.83
4570;BME280;2297;51.442;6.996;2022-11-20T11:00:18;99742.19;;;5.73;46.01
4570;BME280;2297;51.442;6.996;2022-11-20T11:02:48;99744.91;;;5.67;45.98
4570;BME280;2297;51.442;6.996;2022-11-20T11:05:22;99740.50;;;5.69;46.15
4570;BME280;2297;51.442;6.996;2022-11-20T11:07:54;99743.16;;;5.61;46.42
4570;BME280;2297;51.442;6.996;2022-11-20T11:10:24;99738.84;;;5.56;46.54
4570;BME280;2297;51.442;6.996;2022-11-20T11:12:52;99741.41;;;5.65;46.63
4570;BME280;2297;51.442;6.996;2022-11-20T11:15:26;99746.69;;;5.56;46.60
4570;BME280;2297;51.442;6.996;2022-11-20T11:17:55;99735.56;;;5.32;47.04
4570;BME280;2297;51.442;6.996;2022-11-20T11:20:24;99719.59;;;5.60;46.89
4570;BME280;2297;51.442;6.996;2022-11-20T11:22:52;99718.56;;;5.78;46.67
4570;BME280;2297;51.442;6.996;2022-11-20T11:25:26;99720.22;;;5.85;46.54
4570;BME280;2297;51.442;6.996;2022-11-20T11:27:54;99715.88;;;5.82;46.41
4570;BME280;2297;51.442;6.996;2022-11-20T11:30:27;99713.09;;;6.00;46.28
4570;BME280;2297;51.442;6.996;2022-11-20T11:33:10;99701.91;;;5.84;46.65
4570;BME280;2297;51.442;6.996;2022-11-20T11:35:44;99697.38;;;5.98;46.55
4570;BME280;2297;51.442;6.996;2022-11-20T11:38:14;99693.72;;;6.11;46.26
4570;BME280;2297;51.442;6.996;2022-11-20T11:40:43;99688.81;;;5.84;46.42
4570;BME280;2297;51.442;6.996;2022-11-20T11:43:18;99689.44;;;6.04;46.46
4570;BME280;2297;51.442;6.996;2022-11-20T11:46:09;99682.41;;;6.08;46.54
4570;BME280;2297;51.442;6.996;2022-11-20T11:48:56;99677.25;;;6.00;46.41
4570;BME280;2297;51.442;6.996;2022-11-20T11:51:26;99676.50;;;5.90;46.97
4570;BME280;2297;51.442;6.996;2022-11-20T11:53:55;99658.16;;;5.90;46.56
4570;BME280;2297;51.442;6.996;2022-11-20T11:56:24;99657.91;;;6.10;46.53
4570;BME280;2297;51.442;6.996;2022-11-20T11:58:51;99652.53;;;6.20;46.64
4570;BME280;2297;51.442;6.996;2022-11-20T12:01:27;99660.22;;;6.32;46.34
4570;BME280;2297;51.442;6.996;2022-11-20T12:04:04;99655.78;;;6.37;46.25
4570;BME280;2297;51.442;6.996;2022-11-20T12:06:36;99653.16;;;6.40;46.48
4570;BME280;2297;51.442;6.996;2022-11-20T12:09:08;99648.03;;;6.28;46.39
4570;BME280;2297;51.442;6.996;2022-11-20T12:11:42;99640.56;;;5.98;46.90
4570;BME280;2297;51.442;6.996;2022-11-20T12:14:15;99639.69;;;6.00;46.84
4570;BME280;2297;51.442;6.996;2022-11-20T12:16:45;99626.63;;;5.96;47.29
4570;BME280;2297;51.442;6.996;2022-11-20T12:19:14;99627.50;;;5.97;47.29
4570;BME280;2297;51.442;6.996;2022-11-20T12:21:49;99633.63;;;5.96;47.35
4570;BME280;2297;51.442;6.996;2022-11-20T12:24:33;99630.13;;;5.97;47.52
4570;BME280;2297;51.442;6.996;2022-11-20T12:27:09;99627.03;;;5.61;47.98
4570;BME280;2297;51.442;6.996;2022-11-20T12:29:48;99631.31;;;5.70;48.36
4570;BME280;2297;51.442;6.996;2022-11-20T12:32:41;99627.75;;;5.77;48.53
4570;BME280;2297;51.442;6.996;2022-11-20T12:35:30;99621.09;;;5.45;48.83
4570;BME280;2297;51.442;6.996;2022-11-20T12:41:05;99618.28;;;5.59;48.78
4570;BME280;2297;51.442;6.996;2022-11-20T12:43:39;99613.91;;;5.62;48.75
4570;BME280;2297;51.442;6.996;2022-11-20T12:46:30;99611.97;;;5.80;48.59
4570;BME280;2297;51.442;6.996;2022-11-20T12:49:15;99605.00;;;5.79;48.62
4570;BME280;2297;51.442;6.996;2022-11-20T12:52:12;99605.88;;;5.79;48.96
4570;BME280;2297;51.442;6.996;2022-11-20T12:54:58;99591.91;;;5.80;48.72
4570;BME280;2297;51.442;6.996;2022-11-20T12:57:38;99584.88;;;5.82;48.87
4570;BME280;2297;51.442;6.996;2022-11-20T13:00:15;99579.44;;;5.95;48.67
4570;BME280;2297;51.442;6.996;2022-11-20T13:03:13;99570.63;;;6.02;48.69
4570;BME280;2297;51.442;6.996;2022-11-20T13:05:52;99578.47;;;6.04;48.57
4570;BME280;2297;51.442;6.996;2022-11-20T13:08:25;99565.38;;;6.02;48.70
4570;BME280;2297;51.442;6.996;2022-11-20T13:10:57;99556.50;;;6.12;48.34
4570;BME280;2297;51.442;6.996;2022-11-20T13:13:45;99556.50;;;6.12;48.39
4570;BME280;2297;51.442;6.996;2022-11-20T13:16:19;99556.53;;;6.09;48.51
4570;BME280;2297;51.442;6.996;2022-11-20T13:18:49;99549.47;;;6.14;48.32
4570;BME280;2297;51.442;6.996;2022-11-20T13:21:17;99540.72;;;6.15;48.37
4570;BME280;2297;51.442;6.996;2022-11-20T13:23:45;99547.66;;;6.20;48.45
4570;BME280;2297;51.442;6.996;2022-11-20T13:26:17;99532.91;;;6.12;48.45
4570;BME280;2297;51.442;6.996;2022-11-20T13:28:46;99537.31;;;6.10;48.75
4570;BME280;2297;51.442;6.996;2022-11-20T13:31:29;99536.41;;;6.11;48.68
4570;BME280;2297;51.442;6.996;2022-11-20T13:33:57;99535.53;;;6.12;48.85
4570;BME280;2297;51.442;6.996;2022-11-20T13:36:27;99525.91;;;6.13;48.86
4570;BME280;2297;51.442;6.996;2022-11-20T13:38:56;99525.91;;;6.13;48.89
4570;BME280;2297;51.442;6.996;2022-11-20T13:41:24;99532.00;;;6.13;48.90
4570;BME280;2297;51.442;6.996;2022-11-20T13:44:10;99511.91;;;6.14;49.05
4570;BME280;2297;51.442;6.996;2022-11-20T13:46:41;99518.06;;;6.11;49.44
4570;BME280;2297;51.442;6.996;2022-11-20T13:49:17;99515.34;;;6.16;49.45
4570;BME280;2297;51.442;6.996;2022-11-20T13:51:46;99495.31;;;6.12;50.32
4570;BME280;2297;51.442;6.996;2022-11-20T13:54:47;99490.06;;;6.13;50.52
4570;BME280;2297;51.442;6.996;2022-11-20T13:57:33;99484.03;;;6.08;51.13
4570;BME280;2297;51.442;6.996;2022-11-20T14:00:17;99483.97;;;6.13;51.45
4570;BME280;2297;51.442;6.996;2022-11-20T14:02:53;99476.94;;;6.15;51.54